SRA1 OERK-OEDF
Flight info
| Callsign | SRA1 |
|---|---|
| Flight time | N/A |
| Altitude | 19000 |
| Route | ORNIP H976 MUSRI L604 UMENA |
| Aircraft | B77W/H-SDE1E2E3FGHIJ2J3J4J5M1RWXY/L2J |
Departure
| Time | N/A |
|---|---|
| Airport | King Khalid International Airport (OERK) |
Arrival
| Time | 2026-04-16 21:02 |
|---|---|
| Airport | King Fahd International Airport (OEDF) |
| Time | Latitude | Longitude | Altitude | Speed | Heading |
|---|---|---|---|---|---|
| 2026-04-16 20:21 | 25.24968 | 46.93710 | 19019 ft | 401 kts | 35° |
| 2026-04-16 20:22 | 25.26473 | 46.94721 | 19019 ft | 401 kts | 35° |
| 2026-04-16 20:22 | 25.28661 | 46.96190 | 19019 ft | 400 kts | 35° |
| 2026-04-16 20:22 | 25.30941 | 46.97722 | 19019 ft | 400 kts | 35° |
| 2026-04-16 20:22 | 25.34170 | 46.99892 | 19019 ft | 399 kts | 35° |
| 2026-04-16 20:23 | 25.37167 | 47.01908 | 19019 ft | 398 kts | 35° |
| 2026-04-16 20:23 | 25.39504 | 47.03480 | 19019 ft | 398 kts | 35° |
| 2026-04-16 20:23 | 25.41869 | 47.05072 | 19019 ft | 398 kts | 35° |
| 2026-04-16 20:23 | 25.44161 | 47.06616 | 19019 ft | 398 kts | 35° |
| 2026-04-16 20:24 | 25.46453 | 47.08160 | 19019 ft | 398 kts | 35° |
| 2026-04-16 20:24 | 25.48848 | 47.09774 | 19019 ft | 398 kts | 35° |
| 2026-04-16 20:24 | 25.51186 | 47.11351 | 19019 ft | 398 kts | 35° |
| 2026-04-16 20:24 | 25.53550 | 47.12946 | 19019 ft | 398 kts | 35° |
| 2026-04-16 20:25 | 25.55908 | 47.14538 | 19019 ft | 398 kts | 35° |
| 2026-04-16 20:25 | 25.58244 | 47.16115 | 19019 ft | 398 kts | 35° |
| 2026-04-16 20:25 | 25.60583 | 47.17696 | 19020 ft | 400 kts | 35° |
| 2026-04-16 20:25 | 25.63019 | 47.19346 | 19034 ft | 417 kts | 35° |
| 2026-04-16 20:26 | 25.65524 | 47.21043 | 19034 ft | 433 kts | 35° |
| 2026-04-16 20:26 | 25.68105 | 47.22787 | 19022 ft | 436 kts | 35° |
| 2026-04-16 20:26 | 25.69789 | 47.23925 | 19020 ft | 436 kts | 35° |
| 2026-04-16 20:27 | 25.73736 | 47.26596 | 19019 ft | 435 kts | 35° |
| 2026-04-16 20:27 | 25.75856 | 47.28033 | 19019 ft | 435 kts | 35° |
| 2026-04-16 20:27 | 25.78224 | 47.29699 | 19009 ft | 421 kts | 38° |
| 2026-04-16 20:28 | 25.80516 | 47.31578 | 19004 ft | 401 kts | 40° |
| 2026-04-16 20:28 | 25.82621 | 47.33258 | 19011 ft | 396 kts | 39° |
| 2026-04-16 20:28 | 25.85020 | 47.35181 | 19035 ft | 415 kts | 39° |
| 2026-04-16 20:28 | 25.87419 | 47.37090 | 19033 ft | 431 kts | 39° |
| 2026-04-16 20:29 | 25.89814 | 47.38990 | 19022 ft | 434 kts | 39° |
| 2026-04-16 20:29 | 25.92191 | 47.40875 | 19019 ft | 434 kts | 39° |
| 2026-04-16 20:29 | 25.94643 | 47.42820 | 19019 ft | 434 kts | 39° |
| 2026-04-16 20:29 | 25.97084 | 47.44758 | 19016 ft | 428 kts | 39° |
| 2026-04-16 20:30 | 25.99442 | 47.46625 | 19004 ft | 411 kts | 39° |
| 2026-04-16 20:30 | 26.01734 | 47.48445 | 19004 ft | 394 kts | 39° |
| 2026-04-16 20:30 | 26.03929 | 47.50191 | 19016 ft | 392 kts | 39° |
| 2026-04-16 20:30 | 26.06152 | 47.51963 | 19021 ft | 394 kts | 39° |
| 2026-04-16 20:31 | 26.08385 | 47.53741 | 19020 ft | 396 kts | 39° |
| 2026-04-16 20:31 | 26.10255 | 47.55229 | 19019 ft | 396 kts | 39° |
| 2026-04-16 20:31 | 26.12478 | 47.56999 | 19015 ft | 398 kts | 39° |
| 2026-04-16 20:31 | 26.14359 | 47.58501 | 19029 ft | 413 kts | 39° |
| 2026-04-16 20:32 | 26.16777 | 47.60432 | 19030 ft | 430 kts | 39° |
| 2026-04-16 20:32 | 26.18940 | 47.62154 | 19020 ft | 434 kts | 39° |
| 2026-04-16 20:32 | 26.21247 | 47.63992 | 19015 ft | 434 kts | 39° |
| 2026-04-16 20:32 | 26.23680 | 47.66033 | 19010 ft | 421 kts | 44° |
| 2026-04-16 20:33 | 26.25938 | 47.68574 | 19006 ft | 395 kts | 53° |
| 2026-04-16 20:33 | 26.27578 | 47.71083 | 19008 ft | 380 kts | 65° |
| 2026-04-16 20:33 | 26.28570 | 47.73776 | 19027 ft | 377 kts | 76° |
| 2026-04-16 20:33 | 26.29300 | 47.76589 | 19024 ft | 378 kts | 78° |
| 2026-04-16 20:34 | 26.29946 | 47.79335 | 19016 ft | 378 kts | 79° |
| 2026-04-16 20:34 | 26.30567 | 47.82196 | 18873 ft | 374 kts | 79° |
| 2026-04-16 20:34 | 26.31131 | 47.84872 | 18618 ft | 365 kts | 79° |
| 2026-04-16 20:34 | 26.31711 | 47.87675 | 18348 ft | 355 kts | 79° |
| 2026-04-16 20:35 | 26.32256 | 47.90332 | 18086 ft | 347 kts | 79° |
| 2026-04-16 20:35 | 26.32779 | 47.92895 | 17828 ft | 338 kts | 79° |
| 2026-04-16 20:35 | 26.33294 | 47.95422 | 17570 ft | 333 kts | 79° |
| 2026-04-16 20:35 | 26.33804 | 47.97935 | 17318 ft | 331 kts | 79° |
| 2026-04-16 20:36 | 26.34258 | 48.00438 | 17069 ft | 329 kts | 85° |
| 2026-04-16 20:36 | 26.34257 | 48.02904 | 16945 ft | 327 kts | 94° |
| 2026-04-16 20:36 | 26.34159 | 48.05328 | 16745 ft | 329 kts | 93° |
| 2026-04-16 20:36 | 26.34071 | 48.07875 | 16492 ft | 328 kts | 93° |
| 2026-04-16 20:37 | 26.33978 | 48.10280 | 16253 ft | 327 kts | 93° |
| 2026-04-16 20:37 | 26.33876 | 48.12827 | 15998 ft | 325 kts | 93° |
| 2026-04-16 20:37 | 26.33775 | 48.15209 | 15759 ft | 324 kts | 93° |
| 2026-04-16 20:37 | 26.33659 | 48.17818 | 15497 ft | 323 kts | 93° |
| 2026-04-16 20:38 | 26.33543 | 48.20307 | 15246 ft | 323 kts | 93° |
| 2026-04-16 20:38 | 26.33424 | 48.22772 | 14997 ft | 322 kts | 93° |
| 2026-04-16 20:38 | 26.33299 | 48.25257 | 14788 ft | 318 kts | 93° |
| 2026-04-16 20:38 | 26.33174 | 48.27699 | 14841 ft | 327 kts | 93° |
| 2026-04-16 20:39 | 26.33047 | 48.30213 | 14941 ft | 321 kts | 93° |
| 2026-04-16 20:39 | 26.32914 | 48.32703 | 14981 ft | 321 kts | 93° |
| 2026-04-16 20:39 | 26.32784 | 48.35180 | 14983 ft | 321 kts | 93° |
| 2026-04-16 20:39 | 26.32652 | 48.37634 | 14984 ft | 322 kts | 93° |
| 2026-04-16 20:40 | 26.32511 | 48.40125 | 14987 ft | 322 kts | 93° |
| 2026-04-16 20:40 | 26.32384 | 48.42632 | 14982 ft | 322 kts | 93° |
| 2026-04-16 20:40 | 26.32262 | 48.45096 | 14982 ft | 322 kts | 93° |
| 2026-04-16 20:40 | 26.32139 | 48.47584 | 14982 ft | 322 kts | 93° |
| 2026-04-16 20:41 | 26.32015 | 48.50085 | 14982 ft | 322 kts | 93° |
| 2026-04-16 20:41 | 26.31890 | 48.52596 | 14987 ft | 328 kts | 93° |
| 2026-04-16 20:41 | 26.31769 | 48.55050 | 14986 ft | 330 kts | 93° |
| 2026-04-16 20:41 | 26.31642 | 48.57615 | 14982 ft | 330 kts | 93° |
| 2026-04-16 20:42 | 26.31516 | 48.60161 | 14982 ft | 330 kts | 93° |
| 2026-04-16 20:42 | 26.31390 | 48.62722 | 14981 ft | 330 kts | 93° |
| 2026-04-16 20:42 | 26.31266 | 48.65229 | 14982 ft | 330 kts | 93° |
| 2026-04-16 20:42 | 26.31139 | 48.67811 | 14986 ft | 330 kts | 93° |
| 2026-04-16 20:43 | 26.31012 | 48.70380 | 14990 ft | 337 kts | 93° |
| 2026-04-16 20:43 | 26.30889 | 48.73016 | 14991 ft | 342 kts | 92° |
| 2026-04-16 20:43 | 26.30817 | 48.75625 | 14864 ft | 335 kts | 93° |
| 2026-04-16 20:43 | 26.30689 | 48.78064 | 14610 ft | 327 kts | 93° |
| 2026-04-16 20:44 | 26.30555 | 48.80624 | 14345 ft | 320 kts | 93° |
| 2026-04-16 20:44 | 26.30423 | 48.83062 | 14092 ft | 317 kts | 93° |
| 2026-04-16 20:44 | 26.30288 | 48.85496 | 13846 ft | 317 kts | 93° |
| 2026-04-16 20:44 | 26.30147 | 48.87970 | 13597 ft | 318 kts | 93° |
| 2026-04-16 20:45 | 26.30004 | 48.90426 | 13348 ft | 317 kts | 93° |
| 2026-04-16 20:45 | 26.29859 | 48.92858 | 13101 ft | 317 kts | 93° |
| 2026-04-16 20:45 | 26.29710 | 48.95315 | 12978 ft | 314 kts | 93° |
| 2026-04-16 20:45 | 26.29565 | 48.97684 | 12988 ft | 316 kts | 93° |
| 2026-04-16 20:46 | 26.29407 | 49.00132 | 12985 ft | 318 kts | 92° |
| 2026-04-16 20:46 | 26.29224 | 49.02599 | 12986 ft | 323 kts | 93° |
| 2026-04-16 20:46 | 26.29029 | 49.05072 | 12985 ft | 324 kts | 93° |
| 2026-04-16 20:46 | 26.28832 | 49.07562 | 12985 ft | 326 kts | 93° |
| 2026-04-16 20:47 | 26.28632 | 49.10077 | 12985 ft | 327 kts | 93° |
| 2026-04-16 20:47 | 26.28431 | 49.12617 | 12985 ft | 329 kts | 93° |
| 2026-04-16 20:47 | 26.28259 | 49.14824 | 12985 ft | 330 kts | 93° |
| 2026-04-16 20:47 | 26.28066 | 49.17341 | 12802 ft | 333 kts | 93° |
| 2026-04-16 20:48 | 26.27878 | 49.19889 | 12550 ft | 331 kts | 93° |
| 2026-04-16 20:48 | 26.27702 | 49.22372 | 12306 ft | 329 kts | 93° |
| 2026-04-16 20:48 | 26.27528 | 49.24884 | 12057 ft | 327 kts | 93° |
| 2026-04-16 20:48 | 26.27354 | 49.27422 | 11805 ft | 326 kts | 93° |
| 2026-04-16 20:49 | 26.27186 | 49.29895 | 11560 ft | 325 kts | 93° |
| 2026-04-16 20:49 | 26.27014 | 49.32438 | 11307 ft | 324 kts | 93° |
| 2026-04-16 20:49 | 26.26846 | 49.34922 | 11060 ft | 324 kts | 93° |
| 2026-04-16 20:49 | 26.26679 | 49.37402 | 10812 ft | 323 kts | 93° |
| 2026-04-16 20:50 | 26.26513 | 49.39880 | 10563 ft | 322 kts | 93° |
| 2026-04-16 20:50 | 26.26349 | 49.42328 | 10317 ft | 321 kts | 93° |
| 2026-04-16 20:50 | 26.26186 | 49.44783 | 10070 ft | 320 kts | 93° |
| 2026-04-16 20:50 | 26.26024 | 49.47241 | 9820 ft | 317 kts | 93° |
| 2026-04-16 20:51 | 26.25863 | 49.49685 | 9501 ft | 313 kts | 93° |
| 2026-04-16 20:51 | 26.25706 | 49.52090 | 9191 ft | 309 kts | 92° |
| 2026-04-16 20:51 | 26.25556 | 49.54369 | 8889 ft | 286 kts | 92° |
| 2026-04-16 20:51 | 26.25411 | 49.56576 | 8650 ft | 282 kts | 92° |
| 2026-04-16 20:52 | 26.25271 | 49.58710 | 8398 ft | 278 kts | 92° |
| 2026-04-16 20:52 | 26.25132 | 49.60846 | 8144 ft | 275 kts | 92° |
| 2026-04-16 20:52 | 26.25040 | 49.62982 | 7892 ft | 274 kts | 88° |
| 2026-04-16 20:52 | 26.25076 | 49.65074 | 7649 ft | 274 kts | 88° |
| 2026-04-16 20:53 | 26.25104 | 49.67152 | 7404 ft | 273 kts | 88° |
| 2026-04-16 20:53 | 26.25134 | 49.69293 | 7151 ft | 272 kts | 89° |
| 2026-04-16 20:53 | 26.24898 | 49.71381 | 6897 ft | 272 kts | 103° |
| 2026-04-16 20:53 | 26.24433 | 49.73397 | 6656 ft | 270 kts | 103° |
| 2026-04-16 20:54 | 26.24006 | 49.75360 | 6349 ft | 250 kts | 103° |
| 2026-04-16 20:54 | 26.23599 | 49.77212 | 6109 ft | 244 kts | 103° |
| 2026-04-16 20:54 | 26.23215 | 49.78966 | 5826 ft | 233 kts | 103° |
| 2026-04-16 20:54 | 26.22836 | 49.80706 | 5569 ft | 227 kts | 102° |
| 2026-04-16 20:55 | 26.22719 | 49.82397 | 5282 ft | 212 kts | 83° |
| 2026-04-16 20:55 | 26.22884 | 49.84009 | 5055 ft | 212 kts | 83° |
| 2026-04-16 20:55 | 26.23034 | 49.85633 | 4882 ft | 211 kts | 83° |
| 2026-04-16 20:55 | 26.23193 | 49.87305 | 4292 ft | 229 kts | 82° |
| 2026-04-16 20:56 | 26.23522 | 49.88737 | 3691 ft | 241 kts | 62° |
| 2026-04-16 20:56 | 26.24680 | 49.90058 | 2964 ft | 247 kts | 27° |
| 2026-04-16 20:56 | 26.26254 | 49.90589 | 2202 ft | 231 kts | 11° |
| 2026-04-16 20:56 | 26.27694 | 49.90931 | 1915 ft | 200 kts | 6° |
| 2026-04-16 20:57 | 26.28967 | 49.90621 | 1957 ft | 192 kts | 323° |
| 2026-04-16 20:57 | 26.29912 | 49.89544 | 2021 ft | 198 kts | 311° |
| 2026-04-16 20:57 | 26.30843 | 49.88448 | 1959 ft | 195 kts | 320° |
| 2026-04-16 20:57 | 26.32088 | 49.87908 | 1954 ft | 196 kts | 1° |
| 2026-04-16 20:58 | 26.33381 | 49.88237 | 1926 ft | 183 kts | 15° |
| 2026-04-16 20:58 | 26.34581 | 49.88425 | 1889 ft | 175 kts | 354° |
| 2026-04-16 20:58 | 26.35751 | 49.88103 | 1912 ft | 173 kts | 333° |
| 2026-04-16 20:58 | 26.36765 | 49.87357 | 1956 ft | 175 kts | 319° |
| 2026-04-16 20:59 | 26.37609 | 49.86417 | 1943 ft | 172 kts | 307° |
| 2026-04-16 20:59 | 26.38248 | 49.85310 | 1709 ft | 170 kts | 300° |
| 2026-04-16 20:59 | 26.38808 | 49.84190 | 1491 ft | 157 kts | 297° |
| 2026-04-16 20:59 | 26.39405 | 49.83134 | 1233 ft | 162 kts | 315° |
| 2026-04-16 21:00 | 26.40385 | 49.82741 | 1070 ft | 149 kts | 355° |
| 2026-04-16 21:00 | 26.41305 | 49.82695 | 781 ft | 149 kts | 355° |
| 2026-04-16 21:00 | 26.42331 | 49.82480 | 560 ft | 142 kts | 340° |
| 2026-04-16 21:00 | 26.43263 | 49.82123 | 466 ft | 142 kts | 339° |
| 2026-04-16 21:01 | 26.44223 | 49.81821 | 409 ft | 145 kts | 343° |
| 2026-04-16 21:01 | 26.45189 | 49.81513 | 212 ft | 146 kts | 342° |
| 2026-04-16 21:01 | 26.46153 | 49.81207 | 98 ft | 140 kts | 342° |
| 2026-04-16 21:01 | 26.46951 | 49.80959 | 89 ft | 86 kts | 345° |
| 2026-04-16 21:02 | 26.47342 | 49.80837 | 89 ft | 39 kts | 343° |
| 2026-04-16 21:02 | 26.47588 | 49.80745 | 89 ft | 34 kts | 322° |
| 2026-04-16 21:02 | 26.47730 | 49.80589 | 89 ft | 12 kts | 316° |
| 2026-04-16 21:03 | 26.47806 | 49.80505 | 89 ft | 0 kts | 315° |
| 2026-04-16 21:06 | 26.47820 | 49.80489 | 89 ft | 3 kts | 315° |
| 2026-04-16 21:06 | 26.47853 | 49.80485 | 89 ft | 6 kts | 25° |
| 2026-04-16 21:06 | 26.47875 | 49.80534 | 89 ft | 8 kts | 79° |
| 2026-04-16 21:06 | 26.47896 | 49.80617 | 89 ft | 11 kts | 73° |
| 2026-04-16 21:07 | 26.47921 | 49.80711 | 89 ft | 13 kts | 74° |
| 2026-04-16 21:07 | 26.47946 | 49.80809 | 89 ft | 9 kts | 74° |
| 2026-04-16 21:07 | 26.47912 | 49.80869 | 89 ft | 11 kts | 154° |
| 2026-04-16 21:07 | 26.47827 | 49.80897 | 89 ft | 13 kts | 166° |
| 2026-04-16 21:08 | 26.47734 | 49.80926 | 89 ft | 14 kts | 165° |
| 2026-04-16 21:08 | 26.47634 | 49.80957 | 89 ft | 15 kts | 164° |
| 2026-04-16 21:08 | 26.47537 | 49.80987 | 89 ft | 15 kts | 165° |
| 2026-04-16 21:08 | 26.47423 | 49.81022 | 89 ft | 16 kts | 165° |
| 2026-04-16 21:09 | 26.47314 | 49.81055 | 89 ft | 16 kts | 165° |
| 2026-04-16 21:09 | 26.47223 | 49.81084 | 89 ft | 17 kts | 165° |
| 2026-04-16 21:09 | 26.47106 | 49.81119 | 89 ft | 17 kts | 165° |
| 2026-04-16 21:09 | 26.47001 | 49.81153 | 89 ft | 18 kts | 164° |
| 2026-04-16 21:10 | 26.46880 | 49.81190 | 89 ft | 18 kts | 165° |
| 2026-04-16 21:10 | 26.46756 | 49.81228 | 89 ft | 18 kts | 165° |
| 2026-04-16 21:10 | 26.46628 | 49.81267 | 89 ft | 19 kts | 165° |
| 2026-04-16 21:10 | 26.46497 | 49.81309 | 89 ft | 19 kts | 164° |
| 2026-04-16 21:11 | 26.46363 | 49.81351 | 89 ft | 20 kts | 165° |
| 2026-04-16 21:11 | 26.46250 | 49.81385 | 89 ft | 20 kts | 165° |
| 2026-04-16 21:11 | 26.46094 | 49.81433 | 89 ft | 20 kts | 165° |
| 2026-04-16 21:11 | 26.45953 | 49.81477 | 89 ft | 21 kts | 165° |
| 2026-04-16 21:12 | 26.45811 | 49.81521 | 89 ft | 21 kts | 164° |
| 2026-04-16 21:12 | 26.45666 | 49.81565 | 89 ft | 21 kts | 165° |
| 2026-04-16 21:12 | 26.45533 | 49.81606 | 89 ft | 16 kts | 164° |
| 2026-04-16 21:12 | 26.45467 | 49.81629 | 89 ft | 6 kts | 146° |
| 2026-04-16 21:13 | 26.45459 | 49.81692 | 89 ft | 10 kts | 81° |
| 2026-04-16 21:13 | 26.45478 | 49.81778 | 89 ft | 12 kts | 75° |
| 2026-04-16 21:13 | 26.45495 | 49.81841 | 89 ft | 5 kts | 73° |
| 2026-04-16 21:13 | 26.45490 | 49.81880 | 89 ft | 6 kts | 128° |
| 2026-04-16 21:14 | 26.45457 | 49.81900 | 89 ft | 6 kts | 167° |
| 2026-04-16 21:14 | 26.45432 | 49.81907 | 89 ft | 0 kts | 165° |